LFMN/NCE METAR and TAF weather

Enter ICAO airport designator
Station Type Date Time Source
LFMN METAR 2022/06/30 00:30 UTC NOAA

LFMN 300030Z 34006KT 330V040 9999 FEW026 22/19 Q1012 NOSIG


Station Type Date Time Source
LFMN Decoded METAR 2022/06/30 00:30 UTC NOAA

Nice, France (LFMN) 43-39N 007-12E 10M
Jun 29, 2022 - 08:30 PM EDT / 2022.06.30 0030 UTC
Wind: from the NNW (340 degrees) at 7 MPH (6 KT) (direction variable):0
Visibility: greater than 7 mile(s):0
Sky conditions: mostly clear
Temperature: 71 F (22 C)
Dew Point: 66 F (19 C)
Relative Humidity: 83%
Pressure (altimeter): 29.88 in. Hg (1012 hPa)
ob: LFMN 300030Z 34006KT 330V040 9999 FEW026 22/19 Q1012 NOSIG
cycle: 0

Station Type Date Time Source
LFMN TAF 2022/06/29 21:24 UTC NOAA

TAF LFMN 292000Z 2921/0103 VRB04KT CAVOK
BECMG 3006/3008 10010KT
BECMG 3017/3019 VRB02KT

Example: see airport list